Terminal Aerodrome Forecast
Issued by NWS

Home | Current Version | Previous Version | Text Only | Print | Product List | Glossary On
Versions: 1 2 3 4 5 6 7 8 9 10 11 12 13 14 15 16
000
FTAK31 PAJN 261300 AAA
TAFAKT
TAF AMD
PAKT 261308Z 2613/2712 16005KT P6SM SCT015 BKN200
      TEMPO 2613/2616 1SM BR FEW001 BKN030
     FM261900 31006KT P6SM SCT010 BKN040
     FM270400 31010KT P6SM VCSH SCT010 BKN040 OVC080
      AMD LTD TO CLD VIS AND WIND 2613/2615=

USA.gov is the U.S. government's official web portal to all federal, state and local government web resources and services.